sensor_id;sensor_type;location;lat;lon;timestamp;temperature;humidity
20998;DHT22;10657;51.276;6.390;2024-02-23T00:00:35;5.80;99.90
20998;DHT22;10657;51.276;6.390;2024-02-23T00:03:02;5.80;99.90
20998;DHT22;10657;51.276;6.390;2024-02-23T00:05:29;5.70;99.90
20998;DHT22;10657;51.276;6.390;2024-02-23T00:07:56;5.80;99.90
20998;DHT22;10657;51.276;6.390;2024-02-23T00:10:22;5.70;99.90
20998;DHT22;10657;51.276;6.390;2024-02-23T00:12:49;5.80;99.90
20998;DHT22;10657;51.276;6.390;2024-02-23T00:15:16;5.80;99.90
20998;DHT22;10657;51.276;6.390;2024-02-23T00:17:43;5.80;99.90
20998;DHT22;10657;51.276;6.390;2024-02-23T00:20:10;5.80;99.90
20998;DHT22;10657;51.276;6.390;2024-02-23T00:22:41;5.80;99.90
20998;DHT22;10657;51.276;6.390;2024-02-23T00:25:08;5.80;99.90
20998;DHT22;10657;51.276;6.390;2024-02-23T00:27:34;5.80;99.90
20998;DHT22;10657;51.276;6.390;2024-02-23T00:30:02;5.80;99.90
20998;DHT22;10657;51.276;6.390;2024-02-23T00:32:29;5.80;99.90
20998;DHT22;10657;51.276;6.390;2024-02-23T00:34:56;5.80;99.90
20998;DHT22;10657;51.276;6.390;2024-02-23T00:37:23;5.80;99.90
20998;DHT22;10657;51.276;6.390;2024-02-23T00:39:50;5.80;99.90
20998;DHT22;10657;51.276;6.390;2024-02-23T00:42:17;5.80;99.90
20998;DHT22;10657;51.276;6.390;2024-02-23T00:44:46;5.80;99.90
20998;DHT22;10657;51.276;6.390;2024-02-23T00:47:12;5.90;99.90
20998;DHT22;10657;51.276;6.390;2024-02-23T00:52:12;5.90;99.90
20998;DHT22;10657;51.276;6.390;2024-02-23T00:54:38;5.90;99.90
20998;DHT22;10657;51.276;6.390;2024-02-23T00:57:05;5.90;99.90
20998;DHT22;10657;51.276;6.390;2024-02-23T00:59:32;5.90;99.90
20998;DHT22;10657;51.276;6.390;2024-02-23T01:01:59;5.80;99.90
20998;DHT22;10657;51.276;6.390;2024-02-23T01:04:26;5.90;99.90
20998;DHT22;10657;51.276;6.390;2024-02-23T01:06:52;5.90;99.90
20998;DHT22;10657;51.276;6.390;2024-02-23T01:09:19;5.90;99.90
20998;DHT22;10657;51.276;6.390;2024-02-23T01:11:47;6.00;99.90
20998;DHT22;10657;51.276;6.390;2024-02-23T01:14:14;6.00;99.90
20998;DHT22;10657;51.276;6.390;2024-02-23T01:16:41;6.00;99.90
20998;DHT22;10657;51.276;6.390;2024-02-23T01:19:08;6.00;99.90
20998;DHT22;10657;51.276;6.390;2024-02-23T01:21:35;6.10;99.90
20998;DHT22;10657;51.276;6.390;2024-02-23T01:24:02;6.10;99.90
20998;DHT22;10657;51.276;6.390;2024-02-23T01:26:30;6.00;99.90
20998;DHT22;10657;51.276;6.390;2024-02-23T01:28:57;6.10;99.90
20998;DHT22;10657;51.276;6.390;2024-02-23T01:31:24;6.10;99.90
20998;DHT22;10657;51.276;6.390;2024-02-23T01:33:51;6.20;99.90
20998;DHT22;10657;51.276;6.390;2024-02-23T01:36:18;6.10;99.90
20998;DHT22;10657;51.276;6.390;2024-02-23T01:38:44;6.20;99.90
20998;DHT22;10657;51.276;6.390;2024-02-23T01:41:11;6.20;99.90
20998;DHT22;10657;51.276;6.390;2024-02-23T01:43:38;6.20;99.90
20998;DHT22;10657;51.276;6.390;2024-02-23T01:46:05;6.20;99.90
20998;DHT22;10657;51.276;6.390;2024-02-23T01:48:33;6.10;99.90
20998;DHT22;10657;51.276;6.390;2024-02-23T01:51:00;6.00;99.90
20998;DHT22;10657;51.276;6.390;2024-02-23T01:53:27;6.00;99.90
20998;DHT22;10657;51.276;6.390;2024-02-23T01:55:55;6.00;99.90
20998;DHT22;10657;51.276;6.390;2024-02-23T01:58:22;6.00;99.90
20998;DHT22;10657;51.276;6.390;2024-02-23T02:00:49;5.90;99.90
20998;DHT22;10657;51.276;6.390;2024-02-23T02:03:16;5.90;99.90
20998;DHT22;10657;51.276;6.390;2024-02-23T02:05:42;5.90;99.90
20998;DHT22;10657;51.276;6.390;2024-02-23T02:08:11;5.90;99.90
20998;DHT22;10657;51.276;6.390;2024-02-23T02:10:38;5.90;99.90
20998;DHT22;10657;51.276;6.390;2024-02-23T02:13:05;5.90;99.90
20998;DHT22;10657;51.276;6.390;2024-02-23T02:15:32;5.90;99.90
20998;DHT22;10657;51.276;6.390;2024-02-23T02:17:59;5.90;99.90
20998;DHT22;10657;51.276;6.390;2024-02-23T02:20:27;5.80;99.90
20998;DHT22;10657;51.276;6.390;2024-02-23T02:22:55;5.80;99.90
20998;DHT22;10657;51.276;6.390;2024-02-23T02:25:21;5.80;99.90
20998;DHT22;10657;51.276;6.390;2024-02-23T02:27:48;5.80;99.90
20998;DHT22;10657;51.276;6.390;2024-02-23T02:30:15;5.80;99.90
20998;DHT22;10657;51.276;6.390;2024-02-23T02:32:42;5.80;99.90
20998;DHT22;10657;51.276;6.390;2024-02-23T02:35:11;5.80;99.90
20998;DHT22;10657;51.276;6.390;2024-02-23T02:37:39;5.70;99.90
20998;DHT22;10657;51.276;6.390;2024-02-23T02:40:06;5.70;99.90
20998;DHT22;10657;51.276;6.390;2024-02-23T02:42:33;5.70;99.90
20998;DHT22;10657;51.276;6.390;2024-02-23T02:45:00;5.70;99.90
20998;DHT22;10657;51.276;6.390;2024-02-23T02:47:27;5.70;99.90
20998;DHT22;10657;51.276;6.390;2024-02-23T02:49:54;5.70;99.90
20998;DHT22;10657;51.276;6.390;2024-02-23T02:52:21;5.70;99.90
20998;DHT22;10657;51.276;6.390;2024-02-23T02:54:49;5.70;99.90
20998;DHT22;10657;51.276;6.390;2024-02-23T02:57:16;5.70;99.90
20998;DHT22;10657;51.276;6.390;2024-02-23T02:59:43;5.60;99.90
20998;DHT22;10657;51.276;6.390;2024-02-23T03:02:11;5.70;99.90
20998;DHT22;10657;51.276;6.390;2024-02-23T03:04:37;5.70;99.90
20998;DHT22;10657;51.276;6.390;2024-02-23T03:07:04;5.70;99.90
20998;DHT22;10657;51.276;6.390;2024-02-23T03:09:31;5.70;99.90
20998;DHT22;10657;51.276;6.390;2024-02-23T03:11:57;5.70;99.90
20998;DHT22;10657;51.276;6.390;2024-02-23T03:14:25;5.70;99.90
20998;DHT22;10657;51.276;6.390;2024-02-23T03:16:52;5.80;99.90
20998;DHT22;10657;51.276;6.390;2024-02-23T03:19:19;5.80;99.90
20998;DHT22;10657;51.276;6.390;2024-02-23T03:21:49;5.70;99.90
20998;DHT22;10657;51.276;6.390;2024-02-23T03:24:16;5.70;99.90
20998;DHT22;10657;51.276;6.390;2024-02-23T03:26:43;5.70;99.90
20998;DHT22;10657;51.276;6.390;2024-02-23T03:29:10;5.70;99.90
20998;DHT22;10657;51.276;6.390;2024-02-23T03:31:37;5.70;99.90
20998;DHT22;10657;51.276;6.390;2024-02-23T03:34:04;5.70;99.90
20998;DHT22;10657;51.276;6.390;2024-02-23T03:36:31;5.80;99.90
20998;DHT22;10657;51.276;6.390;2024-02-23T03:38:57;5.80;99.90
20998;DHT22;10657;51.276;6.390;2024-02-23T03:41:24;5.90;99.90
20998;DHT22;10657;51.276;6.390;2024-02-23T03:43:51;5.90;99.90
20998;DHT22;10657;51.276;6.390;2024-02-23T03:46:18;5.90;99.90
20998;DHT22;10657;51.276;6.390;2024-02-23T03:48:46;5.90;99.90
20998;DHT22;10657;51.276;6.390;2024-02-23T03:51:12;5.90;99.90
20998;DHT22;10657;51.276;6.390;2024-02-23T03:53:39;5.90;99.90
20998;DHT22;10657;51.276;6.390;2024-02-23T03:56:06;6.00;99.90
20998;DHT22;10657;51.276;6.390;2024-02-23T03:58:33;6.00;99.90
20998;DHT22;10657;51.276;6.390;2024-02-23T04:00:59;6.00;99.90
20998;DHT22;10657;51.276;6.390;2024-02-23T04:03:26;6.00;99.90
20998;DHT22;10657;51.276;6.390;2024-02-23T04:05:53;6.00;99.90
20998;DHT22;10657;51.276;6.390;2024-02-23T04:08:19;6.00;99.90
20998;DHT22;10657;51.276;6.390;2024-02-23T04:10:46;6.00;99.90
20998;DHT22;10657;51.276;6.390;2024-02-23T04:13:13;6.00;99.90
20998;DHT22;10657;51.276;6.390;2024-02-23T04:15:40;6.00;99.90
20998;DHT22;10657;51.276;6.390;2024-02-23T04:18:07;6.10;99.90
20998;DHT22;10657;51.276;6.390;2024-02-23T04:20:33;6.00;99.90
20998;DHT22;10657;51.276;6.390;2024-02-23T04:23:00;5.90;99.90
20998;DHT22;10657;51.276;6.390;2024-02-23T04:25:27;5.90;99.90
20998;DHT22;10657;51.276;6.390;2024-02-23T04:27:54;5.90;99.90
20998;DHT22;10657;51.276;6.390;2024-02-23T04:30:21;5.90;99.90
20998;DHT22;10657;51.276;6.390;2024-02-23T04:32:47;5.90;99.90
20998;DHT22;10657;51.276;6.390;2024-02-23T04:35:15;5.90;99.90
20998;DHT22;10657;51.276;6.390;2024-02-23T04:37:45;5.90;99.90
20998;DHT22;10657;51.276;6.390;2024-02-23T04:40:12;5.90;99.90
20998;DHT22;10657;51.276;6.390;2024-02-23T04:42:39;5.90;99.90
20998;DHT22;10657;51.276;6.390;2024-02-23T04:45:06;5.90;99.90
20998;DHT22;10657;51.276;6.390;2024-02-23T04:47:33;6.00;99.90
20998;DHT22;10657;51.276;6.390;2024-02-23T04:49:59;6.10;99.90
20998;DHT22;10657;51.276;6.390;2024-02-23T04:52:26;6.20;99.90
20998;DHT22;10657;51.276;6.390;2024-02-23T04:54:53;6.30;99.90
20998;DHT22;10657;51.276;6.390;2024-02-23T04:57:20;6.20;99.90
20998;DHT22;10657;51.276;6.390;2024-02-23T04:59:46;6.20;99.90
20998;DHT22;10657;51.276;6.390;2024-02-23T05:02:13;6.20;99.90
20998;DHT22;10657;51.276;6.390;2024-02-23T05:04:41;6.30;99.90
20998;DHT22;10657;51.276;6.390;2024-02-23T05:07:07;6.30;99.90
20998;DHT22;10657;51.276;6.390;2024-02-23T05:09:34;6.40;99.90
20998;DHT22;10657;51.276;6.390;2024-02-23T05:12:01;6.40;99.90
20998;DHT22;10657;51.276;6.390;2024-02-23T05:14:29;6.20;99.90
20998;DHT22;10657;51.276;6.390;2024-02-23T05:16:55;6.10;99.90
20998;DHT22;10657;51.276;6.390;2024-02-23T05:19:22;6.10;99.90
20998;DHT22;10657;51.276;6.390;2024-02-23T05:21:50;6.10;99.90
20998;DHT22;10657;51.276;6.390;2024-02-23T05:24:16;6.10;99.90
20998;DHT22;10657;51.276;6.390;2024-02-23T05:26:43;6.00;99.90
20998;DHT22;10657;51.276;6.390;2024-02-23T05:29:10;6.00;99.90
20998;DHT22;10657;51.276;6.390;2024-02-23T05:31:47;6.00;99.90
20998;DHT22;10657;51.276;6.390;2024-02-23T05:34:15;6.10;99.90
20998;DHT22;10657;51.276;6.390;2024-02-23T05:36:42;6.20;99.90
20998;DHT22;10657;51.276;6.390;2024-02-23T05:39:09;6.30;99.90
20998;DHT22;10657;51.276;6.390;2024-02-23T05:41:36;6.30;99.90
20998;DHT22;10657;51.276;6.390;2024-02-23T05:44:04;6.40;99.90
20998;DHT22;10657;51.276;6.390;2024-02-23T05:46:34;6.30;99.90
20998;DHT22;10657;51.276;6.390;2024-02-23T05:49:01;6.40;99.90
20998;DHT22;10657;51.276;6.390;2024-02-23T05:51:28;6.40;99.90
20998;DHT22;10657;51.276;6.390;2024-02-23T05:53:56;6.40;99.90
20998;DHT22;10657;51.276;6.390;2024-02-23T05:56:23;6.30;99.90
20998;DHT22;10657;51.276;6.390;2024-02-23T05:58:51;6.30;99.90
20998;DHT22;10657;51.276;6.390;2024-02-23T06:01:18;6.40;99.90
20998;DHT22;10657;51.276;6.390;2024-02-23T06:03:45;6.40;99.90
20998;DHT22;10657;51.276;6.390;2024-02-23T06:06:12;6.50;99.90
20998;DHT22;10657;51.276;6.390;2024-02-23T06:08:39;6.50;99.90
20998;DHT22;10657;51.276;6.390;2024-02-23T06:11:06;6.50;99.90
20998;DHT22;10657;51.276;6.390;2024-02-23T06:13:33;6.50;99.90
20998;DHT22;10657;51.276;6.390;2024-02-23T06:16:00;6.40;99.90
20998;DHT22;10657;51.276;6.390;2024-02-23T06:18:27;6.50;99.90
20998;DHT22;10657;51.276;6.390;2024-02-23T06:20:53;6.50;99.90
20998;DHT22;10657;51.276;6.390;2024-02-23T06:23:20;6.50;99.90
20998;DHT22;10657;51.276;6.390;2024-02-23T06:25:48;6.60;99.90
20998;DHT22;10657;51.276;6.390;2024-02-23T06:28:15;6.60;99.90
20998;DHT22;10657;51.276;6.390;2024-02-23T06:30:42;6.60;99.90
20998;DHT22;10657;51.276;6.390;2024-02-23T06:33:09;6.60;99.90
20998;DHT22;10657;51.276;6.390;2024-02-23T06:35:35;6.60;99.90
20998;DHT22;10657;51.276;6.390;2024-02-23T06:38:02;6.60;99.90
20998;DHT22;10657;51.276;6.390;2024-02-23T06:40:29;6.40;99.90
20998;DHT22;10657;51.276;6.390;2024-02-23T06:43:11;6.50;99.90
20998;DHT22;10657;51.276;6.390;2024-02-23T06:45:38;6.40;99.90
20998;DHT22;10657;51.276;6.390;2024-02-23T06:48:05;6.50;99.90
20998;DHT22;10657;51.276;6.390;2024-02-23T06:50:32;6.50;99.90
20998;DHT22;10657;51.276;6.390;2024-02-23T06:52:59;6.60;99.90
20998;DHT22;10657;51.276;6.390;2024-02-23T06:55:26;6.60;99.90
20998;DHT22;10657;51.276;6.390;2024-02-23T06:57:53;6.60;99.90
20998;DHT22;10657;51.276;6.390;2024-02-23T07:00:22;6.50;99.90
20998;DHT22;10657;51.276;6.390;2024-02-23T07:02:49;6.50;99.90
20998;DHT22;10657;51.276;6.390;2024-02-23T07:05:16;6.70;99.90
20998;DHT22;10657;51.276;6.390;2024-02-23T07:07:42;6.70;99.90
20998;DHT22;10657;51.276;6.390;2024-02-23T07:10:09;6.60;99.90
20998;DHT22;10657;51.276;6.390;2024-02-23T07:12:38;6.70;99.90
20998;DHT22;10657;51.276;6.390;2024-02-23T07:15:05;6.80;99.90
20998;DHT22;10657;51.276;6.390;2024-02-23T07:17:32;6.70;99.90
20998;DHT22;10657;51.276;6.390;2024-02-23T07:19:59;6.80;99.90
20998;DHT22;10657;51.276;6.390;2024-02-23T07:22:32;6.80;99.90
20998;DHT22;10657;51.276;6.390;2024-02-23T07:24:59;6.80;99.90
20998;DHT22;10657;51.276;6.390;2024-02-23T07:27:29;6.90;99.90
20998;DHT22;10657;51.276;6.390;2024-02-23T07:29:56;6.90;99.90
20998;DHT22;10657;51.276;6.390;2024-02-23T07:32:22;6.90;99.90
20998;DHT22;10657;51.276;6.390;2024-02-23T07:34:49;6.80;99.90
20998;DHT22;10657;51.276;6.390;2024-02-23T07:37:16;6.80;99.90
20998;DHT22;10657;51.276;6.390;2024-02-23T07:39:43;6.80;99.90
20998;DHT22;10657;51.276;6.390;2024-02-23T07:42:10;6.90;99.90
20998;DHT22;10657;51.276;6.390;2024-02-23T07:44:37;6.90;99.90
20998;DHT22;10657;51.276;6.390;2024-02-23T07:47:04;6.90;99.90
20998;DHT22;10657;51.276;6.390;2024-02-23T07:49:31;7.00;99.90
20998;DHT22;10657;51.276;6.390;2024-02-23T07:51:57;6.90;99.90
20998;DHT22;10657;51.276;6.390;2024-02-23T07:54:24;6.80;99.90
20998;DHT22;10657;51.276;6.390;2024-02-23T07:56:51;6.80;99.90
20998;DHT22;10657;51.276;6.390;2024-02-23T07:59:18;6.70;99.90
20998;DHT22;10657;51.276;6.390;2024-02-23T08:01:44;6.70;99.90
20998;DHT22;10657;51.276;6.390;2024-02-23T08:04:11;6.70;99.90
20998;DHT22;10657;51.276;6.390;2024-02-23T08:06:40;6.90;99.90
20998;DHT22;10657;51.276;6.390;2024-02-23T08:09:06;6.80;99.90
20998;DHT22;10657;51.276;6.390;2024-02-23T08:11:34;6.80;99.90
20998;DHT22;10657;51.276;6.390;2024-02-23T08:14:03;6.90;99.90
20998;DHT22;10657;51.276;6.390;2024-02-23T08:16:29;6.90;99.90
20998;DHT22;10657;51.276;6.390;2024-02-23T08:18:56;6.80;99.90
20998;DHT22;10657;51.276;6.390;2024-02-23T08:21:24;6.90;99.90
20998;DHT22;10657;51.276;6.390;2024-02-23T08:23:51;6.90;99.90
20998;DHT22;10657;51.276;6.390;2024-02-23T08:26:18;6.90;99.90
20998;DHT22;10657;51.276;6.390;2024-02-23T08:28:45;7.10;99.90
20998;DHT22;10657;51.276;6.390;2024-02-23T08:31:11;7.00;99.90
20998;DHT22;10657;51.276;6.390;2024-02-23T08:33:38;7.10;99.90
20998;DHT22;10657;51.276;6.390;2024-02-23T08:36:05;7.10;99.90
20998;DHT22;10657;51.276;6.390;2024-02-23T08:38:32;7.10;99.90
20998;DHT22;10657;51.276;6.390;2024-02-23T08:40:59;7.10;99.90
20998;DHT22;10657;51.276;6.390;2024-02-23T08:43:26;7.10;99.90
20998;DHT22;10657;51.276;6.390;2024-02-23T08:45:53;7.10;99.90
20998;DHT22;10657;51.276;6.390;2024-02-23T08:48:19;7.10;99.90
20998;DHT22;10657;51.276;6.390;2024-02-23T08:50:46;7.20;99.90
20998;DHT22;10657;51.276;6.390;2024-02-23T08:53:13;7.30;99.90
20998;DHT22;10657;51.276;6.390;2024-02-23T08:55:39;7.20;99.90
20998;DHT22;10657;51.276;6.390;2024-02-23T08:58:06;7.30;99.90
20998;DHT22;10657;51.276;6.390;2024-02-23T09:00:33;7.30;99.90
20998;DHT22;10657;51.276;6.390;2024-02-23T09:03:00;7.40;99.90
20998;DHT22;10657;51.276;6.390;2024-02-23T09:05:26;7.40;99.90
20998;DHT22;10657;51.276;6.390;2024-02-23T09:07:54;7.40;99.90
20998;DHT22;10657;51.276;6.390;2024-02-23T09:10:21;7.50;99.90
20998;DHT22;10657;51.276;6.390;2024-02-23T09:12:47;7.50;99.90
20998;DHT22;10657;51.276;6.390;2024-02-23T09:15:14;7.50;99.90
20998;DHT22;10657;51.276;6.390;2024-02-23T09:17:41;7.50;99.90
20998;DHT22;10657;51.276;6.390;2024-02-23T09:20:09;7.60;99.90
20998;DHT22;10657;51.276;6.390;2024-02-23T09:22:35;7.60;99.90
20998;DHT22;10657;51.276;6.390;2024-02-23T09:25:04;7.50;99.90
20998;DHT22;10657;51.276;6.390;2024-02-23T09:27:31;7.60;99.90
20998;DHT22;10657;51.276;6.390;2024-02-23T09:29:58;7.60;99.90
20998;DHT22;10657;51.276;6.390;2024-02-23T09:32:25;7.60;99.90
20998;DHT22;10657;51.276;6.390;2024-02-23T09:34:52;7.50;99.90
20998;DHT22;10657;51.276;6.390;2024-02-23T09:37:18;7.50;99.90
20998;DHT22;10657;51.276;6.390;2024-02-23T09:39:45;7.60;99.90
20998;DHT22;10657;51.276;6.390;2024-02-23T09:42:12;7.60;99.90
20998;DHT22;10657;51.276;6.390;2024-02-23T09:44:39;7.80;99.90
20998;DHT22;10657;51.276;6.390;2024-02-23T09:47:08;7.80;99.90
20998;DHT22;10657;51.276;6.390;2024-02-23T09:49:40;7.80;99.90
20998;DHT22;10657;51.276;6.390;2024-02-23T09:52:08;7.90;99.90
20998;DHT22;10657;51.276;6.390;2024-02-23T09:54:38;7.80;99.90
20998;DHT22;10657;51.276;6.390;2024-02-23T09:57:09;7.80;99.90
20998;DHT22;10657;51.276;6.390;2024-02-23T09:59:37;7.70;99.90
20998;DHT22;10657;51.276;6.390;2024-02-23T10:02:15;7.80;99.90
20998;DHT22;10657;51.276;6.390;2024-02-23T10:04:43;7.70;99.90
20998;DHT22;10657;51.276;6.390;2024-02-23T10:07:10;7.70;99.90
20998;DHT22;10657;51.276;6.390;2024-02-23T10:09:37;7.70;99.90
20998;DHT22;10657;51.276;6.390;2024-02-23T10:12:04;7.80;99.90
20998;DHT22;10657;51.276;6.390;2024-02-23T10:14:31;7.70;99.90
20998;DHT22;10657;51.276;6.390;2024-02-23T10:16:57;7.80;99.90
20998;DHT22;10657;51.276;6.390;2024-02-23T10:19:25;7.80;99.90
20998;DHT22;10657;51.276;6.390;2024-02-23T10:21:56;7.80;99.90
20998;DHT22;10657;51.276;6.390;2024-02-23T10:24:23;7.80;99.90
20998;DHT22;10657;51.276;6.390;2024-02-23T10:26:53;7.90;99.90
20998;DHT22;10657;51.276;6.390;2024-02-23T10:29:20;8.00;99.90
20998;DHT22;10657;51.276;6.390;2024-02-23T10:31:49;8.00;99.90
20998;DHT22;10657;51.276;6.390;2024-02-23T10:34:19;8.00;99.90
20998;DHT22;10657;51.276;6.390;2024-02-23T10:36:46;8.20;99.90
20998;DHT22;10657;51.276;6.390;2024-02-23T10:39:16;8.20;99.90
20998;DHT22;10657;51.276;6.390;2024-02-23T10:41:50;8.10;99.90
20998;DHT22;10657;51.276;6.390;2024-02-23T10:44:21;8.10;99.90
20998;DHT22;10657;51.276;6.390;2024-02-23T10:46:48;8.20;99.90
20998;DHT22;10657;51.276;6.390;2024-02-23T10:49:17;8.10;99.90
20998;DHT22;10657;51.276;6.390;2024-02-23T10:51:47;8.20;99.90
20998;DHT22;10657;51.276;6.390;2024-02-23T10:54:16;8.30;99.90
20998;DHT22;10657;51.276;6.390;2024-02-23T10:56:49;8.30;99.90
20998;DHT22;10657;51.276;6.390;2024-02-23T10:59:17;8.30;99.90
20998;DHT22;10657;51.276;6.390;2024-02-23T11:01:49;8.30;99.90
20998;DHT22;10657;51.276;6.390;2024-02-23T11:04:17;8.30;99.90
20998;DHT22;10657;51.276;6.390;2024-02-23T11:06:52;8.30;99.90
20998;DHT22;10657;51.276;6.390;2024-02-23T11:09:23;8.30;99.90
20998;DHT22;10657;51.276;6.390;2024-02-23T11:11:57;8.30;99.90
20998;DHT22;10657;51.276;6.390;2024-02-23T11:14:36;8.40;99.90
20998;DHT22;10657;51.276;6.390;2024-02-23T11:17:03;8.40;99.90
20998;DHT22;10657;51.276;6.390;2024-02-23T11:19:35;8.30;99.90
20998;DHT22;10657;51.276;6.390;2024-02-23T11:22:03;8.30;99.90
20998;DHT22;10657;51.276;6.390;2024-02-23T11:24:31;8.20;99.90
20998;DHT22;10657;51.276;6.390;2024-02-23T11:26:59;8.20;99.90
20998;DHT22;10657;51.276;6.390;2024-02-23T11:29:27;8.20;99.90
20998;DHT22;10657;51.276;6.390;2024-02-23T11:31:55;8.20;99.90
20998;DHT22;10657;51.276;6.390;2024-02-23T11:34:27;8.20;99.90
20998;DHT22;10657;51.276;6.390;2024-02-23T11:36:54;8.20;99.90
20998;DHT22;10657;51.276;6.390;2024-02-23T11:39:21;8.30;99.90
20998;DHT22;10657;51.276;6.390;2024-02-23T11:41:49;8.50;99.90
20998;DHT22;10657;51.276;6.390;2024-02-23T11:44:17;8.40;99.90
20998;DHT22;10657;51.276;6.390;2024-02-23T11:46:44;8.40;99.90
20998;DHT22;10657;51.276;6.390;2024-02-23T11:49:12;8.30;99.90
20998;DHT22;10657;51.276;6.390;2024-02-23T11:51:39;8.30;99.90
20998;DHT22;10657;51.276;6.390;2024-02-23T11:54:06;8.40;99.90
20998;DHT22;10657;51.276;6.390;2024-02-23T11:56:33;8.40;99.90
20998;DHT22;10657;51.276;6.390;2024-02-23T11:59:00;8.40;99.90
20998;DHT22;10657;51.276;6.390;2024-02-23T12:01:30;8.40;99.90
20998;DHT22;10657;51.276;6.390;2024-02-23T12:03:58;8.40;99.90
20998;DHT22;10657;51.276;6.390;2024-02-23T12:06:25;8.30;99.90
20998;DHT22;10657;51.276;6.390;2024-02-23T12:08:56;8.50;99.90
20998;DHT22;10657;51.276;6.390;2024-02-23T12:11:23;8.40;99.90
20998;DHT22;10657;51.276;6.390;2024-02-23T12:13:49;8.40;99.90
20998;DHT22;10657;51.276;6.390;2024-02-23T12:16:17;8.40;99.90
20998;DHT22;10657;51.276;6.390;2024-02-23T12:18:44;8.40;99.90
20998;DHT22;10657;51.276;6.390;2024-02-23T12:21:11;8.40;99.90
20998;DHT22;10657;51.276;6.390;2024-02-23T12:23:42;8.50;99.90
20998;DHT22;10657;51.276;6.390;2024-02-23T12:26:14;8.40;99.90
20998;DHT22;10657;51.276;6.390;2024-02-23T12:28:41;8.40;99.90
20998;DHT22;10657;51.276;6.390;2024-02-23T12:31:08;8.30;99.90
20998;DHT22;10657;51.276;6.390;2024-02-23T12:33:36;8.40;99.90
20998;DHT22;10657;51.276;6.390;2024-02-23T12:36:08;8.50;99.90
20998;DHT22;10657;51.276;6.390;2024-02-23T12:38:35;8.50;99.90
20998;DHT22;10657;51.276;6.390;2024-02-23T12:41:02;8.50;99.90
20998;DHT22;10657;51.276;6.390;2024-02-23T12:43:29;8.50;99.90
20998;DHT22;10657;51.276;6.390;2024-02-23T12:45:57;8.60;99.90
20998;DHT22;10657;51.276;6.390;2024-02-23T12:48:24;8.40;99.90
20998;DHT22;10657;51.276;6.390;2024-02-23T12:50:52;8.50;99.90
20998;DHT22;10657;51.276;6.390;2024-02-23T12:53:35;8.60;99.90
20998;DHT22;10657;51.276;6.390;2024-02-23T12:56:10;8.50;99.90
20998;DHT22;10657;51.276;6.390;2024-02-23T12:58:40;8.50;99.90
20998;DHT22;10657;51.276;6.390;2024-02-23T13:01:07;8.70;99.90
20998;DHT22;10657;51.276;6.390;2024-02-23T13:03:35;8.70;99.90
20998;DHT22;10657;51.276;6.390;2024-02-23T13:06:03;8.60;99.90
20998;DHT22;10657;51.276;6.390;2024-02-23T13:08:30;8.60;99.90
20998;DHT22;10657;51.276;6.390;2024-02-23T13:10:57;8.60;99.90
20998;DHT22;10657;51.276;6.390;2024-02-23T13:13:24;8.60;99.90
20998;DHT22;10657;51.276;6.390;2024-02-23T13:15:52;8.60;99.90
20998;DHT22;10657;51.276;6.390;2024-02-23T13:18:19;8.60;99.90
20998;DHT22;10657;51.276;6.390;2024-02-23T13:20:47;8.60;99.90
20998;DHT22;10657;51.276;6.390;2024-02-23T13:23:14;8.60;99.90
20998;DHT22;10657;51.276;6.390;2024-02-23T13:25:43;8.60;99.90
20998;DHT22;10657;51.276;6.390;2024-02-23T13:28:10;8.70;99.90
20998;DHT22;10657;51.276;6.390;2024-02-23T13:30:37;8.70;99.90
20998;DHT22;10657;51.276;6.390;2024-02-23T13:33:04;8.70;99.90
20998;DHT22;10657;51.276;6.390;2024-02-23T13:35:32;8.80;99.90
20998;DHT22;10657;51.276;6.390;2024-02-23T13:37:59;8.80;99.90
20998;DHT22;10657;51.276;6.390;2024-02-23T13:40:26;8.80;99.90
20998;DHT22;10657;51.276;6.390;2024-02-23T13:42:53;8.80;99.90
20998;DHT22;10657;51.276;6.390;2024-02-23T13:45:20;8.80;99.90
20998;DHT22;10657;51.276;6.390;2024-02-23T13:47:58;8.90;99.90
20998;DHT22;10657;51.276;6.390;2024-02-23T13:50:26;8.90;99.90
20998;DHT22;10657;51.276;6.390;2024-02-23T13:52:53;9.00;99.90
20998;DHT22;10657;51.276;6.390;2024-02-23T13:55:20;8.90;99.90
20998;DHT22;10657;51.276;6.390;2024-02-23T13:57:48;9.00;99.90
20998;DHT22;10657;51.276;6.390;2024-02-23T14:00:16;9.00;99.90
20998;DHT22;10657;51.276;6.390;2024-02-23T14:02:44;9.10;99.90
20998;DHT22;10657;51.276;6.390;2024-02-23T14:05:12;9.10;99.90
20998;DHT22;10657;51.276;6.390;2024-02-23T14:07:40;9.10;99.90
20998;DHT22;10657;51.276;6.390;2024-02-23T14:10:07;9.20;99.90
20998;DHT22;10657;51.276;6.390;2024-02-23T14:12:34;9.40;99.90
20998;DHT22;10657;51.276;6.390;2024-02-23T14:15:01;9.40;99.90
20998;DHT22;10657;51.276;6.390;2024-02-23T14:17:28;9.60;99.90
20998;DHT22;10657;51.276;6.390;2024-02-23T14:19:54;9.60;99.90
20998;DHT22;10657;51.276;6.390;2024-02-23T14:22:21;9.60;99.90
20998;DHT22;10657;51.276;6.390;2024-02-23T14:24:48;9.50;99.90
20998;DHT22;10657;51.276;6.390;2024-02-23T14:27:15;9.40;99.90
20998;DHT22;10657;51.276;6.390;2024-02-23T14:29:41;9.40;99.90
20998;DHT22;10657;51.276;6.390;2024-02-23T14:32:08;9.40;99.90
20998;DHT22;10657;51.276;6.390;2024-02-23T14:34:35;9.40;99.90
20998;DHT22;10657;51.276;6.390;2024-02-23T14:37:02;9.30;99.90
20998;DHT22;10657;51.276;6.390;2024-02-23T14:39:29;9.30;99.90
20998;DHT22;10657;51.276;6.390;2024-02-23T14:41:55;9.30;99.90
20998;DHT22;10657;51.276;6.390;2024-02-23T14:44:22;9.10;99.90
20998;DHT22;10657;51.276;6.390;2024-02-23T14:46:49;9.10;99.90
20998;DHT22;10657;51.276;6.390;2024-02-23T14:49:16;9.20;99.90
20998;DHT22;10657;51.276;6.390;2024-02-23T14:51:43;9.60;99.90
20998;DHT22;10657;51.276;6.390;2024-02-23T14:54:12;10.10;99.90
20998;DHT22;10657;51.276;6.390;2024-02-23T14:56:39;10.20;99.90
20998;DHT22;10657;51.276;6.390;2024-02-23T14:59:07;10.10;99.90
20998;DHT22;10657;51.276;6.390;2024-02-23T15:01:37;10.10;99.90
20998;DHT22;10657;51.276;6.390;2024-02-23T15:04:05;10.00;99.90
20998;DHT22;10657;51.276;6.390;2024-02-23T15:06:32;9.80;99.90
20998;DHT22;10657;51.276;6.390;2024-02-23T15:09:00;9.60;99.90
20998;DHT22;10657;51.276;6.390;2024-02-23T15:11:28;9.50;99.90
20998;DHT22;10657;51.276;6.390;2024-02-23T15:13:55;9.40;99.90
20998;DHT22;10657;51.276;6.390;2024-02-23T15:16:25;9.30;99.90
20998;DHT22;10657;51.276;6.390;2024-02-23T15:18:52;9.10;99.90
20998;DHT22;10657;51.276;6.390;2024-02-23T15:21:19;9.00;99.90
20998;DHT22;10657;51.276;6.390;2024-02-23T15:23:46;9.10;99.90
20998;DHT22;10657;51.276;6.390;2024-02-23T15:26:13;9.30;99.90
20998;DHT22;10657;51.276;6.390;2024-02-23T15:28:41;9.50;99.90
20998;DHT22;10657;51.276;6.390;2024-02-23T15:31:08;9.60;99.90
20998;DHT22;10657;51.276;6.390;2024-02-23T15:33:35;9.60;99.90
20998;DHT22;10657;51.276;6.390;2024-02-23T15:36:08;9.60;99.90
20998;DHT22;10657;51.276;6.390;2024-02-23T15:38:35;9.80;99.90
20998;DHT22;10657;51.276;6.390;2024-02-23T15:41:03;10.10;99.90
20998;DHT22;10657;51.276;6.390;2024-02-23T15:43:30;9.90;99.90
20998;DHT22;10657;51.276;6.390;2024-02-23T15:45:57;9.90;99.90
20998;DHT22;10657;51.276;6.390;2024-02-23T15:48:24;9.90;99.90